sensor_id;sensor_type;location;lat;lon;timestamp;temperature;humidity
27004;DHT22;14546;47.590;19.022;2024-03-08T00:00:19;6.50;93.30
27004;DHT22;14546;47.590;19.022;2024-03-08T00:02:45;6.50;93.30
27004;DHT22;14546;47.590;19.022;2024-03-08T00:05:12;6.50;93.40
27004;DHT22;14546;47.590;19.022;2024-03-08T00:07:38;6.60;93.40
27004;DHT22;14546;47.590;19.022;2024-03-08T00:10:05;6.60;93.40
27004;DHT22;14546;47.590;19.022;2024-03-08T00:12:31;6.60;93.40
27004;DHT22;14546;47.590;19.022;2024-03-08T00:14:57;6.50;93.30
27004;DHT22;14546;47.590;19.022;2024-03-08T00:17:22;6.50;93.30
27004;DHT22;14546;47.590;19.022;2024-03-08T00:19:49;6.50;93.40
27004;DHT22;14546;47.590;19.022;2024-03-08T00:22:16;6.50;93.50
27004;DHT22;14546;47.590;19.022;2024-03-08T00:24:42;6.50;93.60
27004;DHT22;14546;47.590;19.022;2024-03-08T00:27:07;6.60;93.60
27004;DHT22;14546;47.590;19.022;2024-03-08T00:29:34;6.60;93.60
27004;DHT22;14546;47.590;19.022;2024-03-08T00:32:00;6.60;93.60
27004;DHT22;14546;47.590;19.022;2024-03-08T00:34:26;6.60;93.50
27004;DHT22;14546;47.590;19.022;2024-03-08T00:36:52;6.60;93.50
27004;DHT22;14546;47.590;19.022;2024-03-08T00:39:18;6.60;93.50
27004;DHT22;14546;47.590;19.022;2024-03-08T00:41:46;6.50;93.50
27004;DHT22;14546;47.590;19.022;2024-03-08T00:44:13;6.50;93.60
27004;DHT22;14546;47.590;19.022;2024-03-08T00:46:38;6.60;93.70
27004;DHT22;14546;47.590;19.022;2024-03-08T00:49:04;6.60;93.70
27004;DHT22;14546;47.590;19.022;2024-03-08T00:51:30;6.50;93.70
27004;DHT22;14546;47.590;19.022;2024-03-08T00:53:55;6.60;93.70
27004;DHT22;14546;47.590;19.022;2024-03-08T00:56:21;6.60;93.70
27004;DHT22;14546;47.590;19.022;2024-03-08T00:58:47;6.50;93.60
27004;DHT22;14546;47.590;19.022;2024-03-08T01:01:15;6.50;93.60
27004;DHT22;14546;47.590;19.022;2024-03-08T01:03:43;6.50;93.70
27004;DHT22;14546;47.590;19.022;2024-03-08T01:06:09;6.50;93.70
27004;DHT22;14546;47.590;19.022;2024-03-08T01:08:34;6.50;93.70
27004;DHT22;14546;47.590;19.022;2024-03-08T01:11:04;6.40;93.70
27004;DHT22;14546;47.590;19.022;2024-03-08T01:13:30;6.50;93.80
27004;DHT22;14546;47.590;19.022;2024-03-08T01:15:56;6.50;93.80
27004;DHT22;14546;47.590;19.022;2024-03-08T01:18:22;6.50;93.90
27004;DHT22;14546;47.590;19.022;2024-03-08T01:20:48;6.50;93.90
27004;DHT22;14546;47.590;19.022;2024-03-08T01:23:13;6.50;93.80
27004;DHT22;14546;47.590;19.022;2024-03-08T01:25:39;6.50;93.80
27004;DHT22;14546;47.590;19.022;2024-03-08T01:28:07;6.50;93.80
27004;DHT22;14546;47.590;19.022;2024-03-08T01:30:32;6.50;93.80
27004;DHT22;14546;47.590;19.022;2024-03-08T01:33:00;6.50;93.70
27004;DHT22;14546;47.590;19.022;2024-03-08T01:35:26;6.40;93.70
27004;DHT22;14546;47.590;19.022;2024-03-08T01:37:52;6.40;93.70
27004;DHT22;14546;47.590;19.022;2024-03-08T01:40:18;6.40;93.80
27004;DHT22;14546;47.590;19.022;2024-03-08T01:42:44;6.40;93.80
27004;DHT22;14546;47.590;19.022;2024-03-08T01:45:10;6.40;93.90
27004;DHT22;14546;47.590;19.022;2024-03-08T01:47:36;6.40;94.00
27004;DHT22;14546;47.590;19.022;2024-03-08T01:50:03;6.40;94.00
27004;DHT22;14546;47.590;19.022;2024-03-08T01:52:30;6.40;93.90
27004;DHT22;14546;47.590;19.022;2024-03-08T01:55:02;6.40;94.00
27004;DHT22;14546;47.590;19.022;2024-03-08T01:57:41;6.40;94.00
27004;DHT22;14546;47.590;19.022;2024-03-08T02:00:07;6.40;94.00
27004;DHT22;14546;47.590;19.022;2024-03-08T02:02:37;6.40;94.00
27004;DHT22;14546;47.590;19.022;2024-03-08T02:05:03;6.40;94.00
27004;DHT22;14546;47.590;19.022;2024-03-08T02:07:30;6.40;94.10
27004;DHT22;14546;47.590;19.022;2024-03-08T02:09:56;6.50;94.10
27004;DHT22;14546;47.590;19.022;2024-03-08T02:12:22;6.50;94.10
27004;DHT22;14546;47.590;19.022;2024-03-08T02:14:48;6.50;94.10
27004;DHT22;14546;47.590;19.022;2024-03-08T02:17:14;6.50;94.10
27004;DHT22;14546;47.590;19.022;2024-03-08T02:19:39;6.50;94.10
27004;DHT22;14546;47.590;19.022;2024-03-08T02:22:06;6.50;94.10
27004;DHT22;14546;47.590;19.022;2024-03-08T02:24:32;6.50;94.10
27004;DHT22;14546;47.590;19.022;2024-03-08T02:26:59;6.50;94.10
27004;DHT22;14546;47.590;19.022;2024-03-08T02:29:24;6.60;94.20
27004;DHT22;14546;47.590;19.022;2024-03-08T02:31:53;6.50;94.10
27004;DHT22;14546;47.590;19.022;2024-03-08T02:34:19;6.50;94.10
27004;DHT22;14546;47.590;19.022;2024-03-08T02:36:45;6.50;94.20
27004;DHT22;14546;47.590;19.022;2024-03-08T02:39:12;6.50;94.20
27004;DHT22;14546;47.590;19.022;2024-03-08T02:41:38;6.50;94.20
27004;DHT22;14546;47.590;19.022;2024-03-08T02:44:03;6.50;94.20
27004;DHT22;14546;47.590;19.022;2024-03-08T02:46:29;6.50;94.30
27004;DHT22;14546;47.590;19.022;2024-03-08T02:48:55;6.50;94.20
27004;DHT22;14546;47.590;19.022;2024-03-08T02:51:21;6.50;94.20
27004;DHT22;14546;47.590;19.022;2024-03-08T02:53:47;6.50;94.20
27004;DHT22;14546;47.590;19.022;2024-03-08T02:56:14;6.50;94.30
27004;DHT22;14546;47.590;19.022;2024-03-08T02:58:42;6.50;94.30
27004;DHT22;14546;47.590;19.022;2024-03-08T03:01:08;6.50;94.30
27004;DHT22;14546;47.590;19.022;2024-03-08T03:03:35;6.50;94.30
27004;DHT22;14546;47.590;19.022;2024-03-08T03:06:01;6.50;94.30
27004;DHT22;14546;47.590;19.022;2024-03-08T03:08:27;6.60;94.30
27004;DHT22;14546;47.590;19.022;2024-03-08T03:10:53;6.50;94.30
27004;DHT22;14546;47.590;19.022;2024-03-08T03:13:18;6.60;94.40
27004;DHT22;14546;47.590;19.022;2024-03-08T03:15:46;6.60;94.30
27004;DHT22;14546;47.590;19.022;2024-03-08T03:18:12;6.60;94.30
27004;DHT22;14546;47.590;19.022;2024-03-08T03:20:37;6.50;94.20
27004;DHT22;14546;47.590;19.022;2024-03-08T03:23:06;6.50;94.30
27004;DHT22;14546;47.590;19.022;2024-03-08T03:25:34;6.60;94.40
27004;DHT22;14546;47.590;19.022;2024-03-08T03:28:04;6.50;94.20
27004;DHT22;14546;47.590;19.022;2024-03-08T03:30:30;6.50;94.30
27004;DHT22;14546;47.590;19.022;2024-03-08T03:33:01;6.50;94.30
27004;DHT22;14546;47.590;19.022;2024-03-08T03:35:30;6.50;94.20
27004;DHT22;14546;47.590;19.022;2024-03-08T03:37:56;6.40;94.20
27004;DHT22;14546;47.590;19.022;2024-03-08T03:40:37;6.40;94.20
27004;DHT22;14546;47.590;19.022;2024-03-08T03:43:03;6.30;94.30
27004;DHT22;14546;47.590;19.022;2024-03-08T03:45:29;6.30;94.30
27004;DHT22;14546;47.590;19.022;2024-03-08T03:47:59;6.40;94.30
27004;DHT22;14546;47.590;19.022;2024-03-08T03:50:26;6.30;94.30
27004;DHT22;14546;47.590;19.022;2024-03-08T03:52:51;6.30;94.30
27004;DHT22;14546;47.590;19.022;2024-03-08T03:55:17;6.30;94.30
27004;DHT22;14546;47.590;19.022;2024-03-08T03:57:43;6.40;94.40
27004;DHT22;14546;47.590;19.022;2024-03-08T04:00:11;6.40;94.30
27004;DHT22;14546;47.590;19.022;2024-03-08T04:02:38;6.40;94.30
27004;DHT22;14546;47.590;19.022;2024-03-08T04:05:05;6.30;94.20
27004;DHT22;14546;47.590;19.022;2024-03-08T04:07:32;6.30;94.30
27004;DHT22;14546;47.590;19.022;2024-03-08T04:09:57;6.30;94.30
27004;DHT22;14546;47.590;19.022;2024-03-08T04:12:23;6.30;94.30
27004;DHT22;14546;47.590;19.022;2024-03-08T04:14:49;6.30;94.20
27004;DHT22;14546;47.590;19.022;2024-03-08T04:17:15;6.30;94.30
27004;DHT22;14546;47.590;19.022;2024-03-08T04:19:40;6.30;94.30
27004;DHT22;14546;47.590;19.022;2024-03-08T04:22:06;6.30;94.40
27004;DHT22;14546;47.590;19.022;2024-03-08T04:24:33;6.30;94.30
27004;DHT22;14546;47.590;19.022;2024-03-08T04:26:59;6.30;94.20
27004;DHT22;14546;47.590;19.022;2024-03-08T04:29:25;6.30;94.20
27004;DHT22;14546;47.590;19.022;2024-03-08T04:31:51;6.30;94.30
27004;DHT22;14546;47.590;19.022;2024-03-08T04:34:20;6.30;94.20
27004;DHT22;14546;47.590;19.022;2024-03-08T04:36:47;6.30;94.20
27004;DHT22;14546;47.590;19.022;2024-03-08T04:39:13;6.30;94.30
27004;DHT22;14546;47.590;19.022;2024-03-08T04:41:39;6.30;94.20
27004;DHT22;14546;47.590;19.022;2024-03-08T04:44:05;6.30;94.20
27004;DHT22;14546;47.590;19.022;2024-03-08T04:46:31;6.30;94.20
27004;DHT22;14546;47.590;19.022;2024-03-08T04:48:57;6.30;94.30
27004;DHT22;14546;47.590;19.022;2024-03-08T04:51:24;6.30;94.30
27004;DHT22;14546;47.590;19.022;2024-03-08T04:53:50;6.30;94.30
27004;DHT22;14546;47.590;19.022;2024-03-08T04:56:16;6.30;94.30
27004;DHT22;14546;47.590;19.022;2024-03-08T04:58:41;6.30;94.30
27004;DHT22;14546;47.590;19.022;2024-03-08T05:01:07;6.30;94.30
27004;DHT22;14546;47.590;19.022;2024-03-08T05:03:36;6.40;94.30
27004;DHT22;14546;47.590;19.022;2024-03-08T05:06:02;6.40;94.30
27004;DHT22;14546;47.590;19.022;2024-03-08T05:08:28;6.40;94.20
27004;DHT22;14546;47.590;19.022;2024-03-08T05:10:56;6.30;94.20
27004;DHT22;14546;47.590;19.022;2024-03-08T05:13:22;6.30;94.20
27004;DHT22;14546;47.590;19.022;2024-03-08T05:15:49;6.30;94.30
27004;DHT22;14546;47.590;19.022;2024-03-08T05:18:18;6.30;94.60
27004;DHT22;14546;47.590;19.022;2024-03-08T05:20:43;6.30;94.20
27004;DHT22;14546;47.590;19.022;2024-03-08T05:23:09;6.30;94.30
27004;DHT22;14546;47.590;19.022;2024-03-08T05:25:35;6.40;94.30
27004;DHT22;14546;47.590;19.022;2024-03-08T05:28:01;6.30;94.30
27004;DHT22;14546;47.590;19.022;2024-03-08T05:30:27;6.40;94.30
27004;DHT22;14546;47.590;19.022;2024-03-08T05:32:52;6.30;94.30
27004;DHT22;14546;47.590;19.022;2024-03-08T05:35:18;6.30;94.30
27004;DHT22;14546;47.590;19.022;2024-03-08T05:37:44;6.30;94.30
27004;DHT22;14546;47.590;19.022;2024-03-08T05:40:10;6.30;94.30
27004;DHT22;14546;47.590;19.022;2024-03-08T05:42:35;6.30;94.30
27004;DHT22;14546;47.590;19.022;2024-03-08T05:45:04;6.30;94.40
27004;DHT22;14546;47.590;19.022;2024-03-08T05:47:32;6.30;94.40
27004;DHT22;14546;47.590;19.022;2024-03-08T05:49:58;6.40;94.40
27004;DHT22;14546;47.590;19.022;2024-03-08T05:52:24;6.30;94.40
27004;DHT22;14546;47.590;19.022;2024-03-08T05:54:51;6.40;94.40
27004;DHT22;14546;47.590;19.022;2024-03-08T05:57:17;6.40;94.40
27004;DHT22;14546;47.590;19.022;2024-03-08T05:59:43;6.40;94.40
27004;DHT22;14546;47.590;19.022;2024-03-08T06:02:08;6.40;94.40
27004;DHT22;14546;47.590;19.022;2024-03-08T06:04:34;6.40;94.40
27004;DHT22;14546;47.590;19.022;2024-03-08T06:07:00;6.40;94.40
27004;DHT22;14546;47.590;19.022;2024-03-08T06:09:28;6.40;94.40
27004;DHT22;14546;47.590;19.022;2024-03-08T06:11:54;6.40;94.40
27004;DHT22;14546;47.590;19.022;2024-03-08T06:14:20;6.40;94.50
27004;DHT22;14546;47.590;19.022;2024-03-08T06:16:46;6.40;94.50
27004;DHT22;14546;47.590;19.022;2024-03-08T06:19:12;6.40;94.50
27004;DHT22;14546;47.590;19.022;2024-03-08T06:21:39;6.40;94.40
27004;DHT22;14546;47.590;19.022;2024-03-08T06:24:05;6.50;94.40
27004;DHT22;14546;47.590;19.022;2024-03-08T06:26:31;6.50;94.40
27004;DHT22;14546;47.590;19.022;2024-03-08T06:28:57;6.50;94.40
27004;DHT22;14546;47.590;19.022;2024-03-08T06:31:23;6.50;94.40
27004;DHT22;14546;47.590;19.022;2024-03-08T06:33:49;6.40;94.30
27004;DHT22;14546;47.590;19.022;2024-03-08T06:36:17;6.40;94.40
27004;DHT22;14546;47.590;19.022;2024-03-08T06:38:50;6.40;94.40
27004;DHT22;14546;47.590;19.022;2024-03-08T06:41:16;6.50;94.50
27004;DHT22;14546;47.590;19.022;2024-03-08T06:43:43;6.50;94.50
27004;DHT22;14546;47.590;19.022;2024-03-08T06:46:09;6.50;94.50
27004;DHT22;14546;47.590;19.022;2024-03-08T06:48:36;6.50;94.50
27004;DHT22;14546;47.590;19.022;2024-03-08T06:51:06;6.50;94.50
27004;DHT22;14546;47.590;19.022;2024-03-08T06:53:32;6.50;94.50
27004;DHT22;14546;47.590;19.022;2024-03-08T06:55:58;6.50;94.40
27004;DHT22;14546;47.590;19.022;2024-03-08T06:58:24;6.50;94.50
27004;DHT22;14546;47.590;19.022;2024-03-08T07:00:51;6.50;94.50
27004;DHT22;14546;47.590;19.022;2024-03-08T07:03:24;6.50;94.50
27004;DHT22;14546;47.590;19.022;2024-03-08T07:05:53;6.60;94.60
27004;DHT22;14546;47.590;19.022;2024-03-08T07:08:19;6.60;94.60
27004;DHT22;14546;47.590;19.022;2024-03-08T07:10:48;6.60;94.60
27004;DHT22;14546;47.590;19.022;2024-03-08T07:13:15;6.60;94.60
27004;DHT22;14546;47.590;19.022;2024-03-08T07:15:44;6.70;94.70
27004;DHT22;14546;47.590;19.022;2024-03-08T07:18:12;6.60;94.60
27004;DHT22;14546;47.590;19.022;2024-03-08T07:20:41;6.60;94.60
27004;DHT22;14546;47.590;19.022;2024-03-08T07:23:07;6.70;94.70
27004;DHT22;14546;47.590;19.022;2024-03-08T07:25:34;6.70;94.60
27004;DHT22;14546;47.590;19.022;2024-03-08T07:28:02;6.80;94.60
27004;DHT22;14546;47.590;19.022;2024-03-08T07:30:30;6.80;94.60
27004;DHT22;14546;47.590;19.022;2024-03-08T07:33:14;6.90;94.60
27004;DHT22;14546;47.590;19.022;2024-03-08T07:35:40;6.90;94.60
27004;DHT22;14546;47.590;19.022;2024-03-08T07:38:08;6.90;94.40
27004;DHT22;14546;47.590;19.022;2024-03-08T07:40:37;6.90;94.40
27004;DHT22;14546;47.590;19.022;2024-03-08T07:43:09;6.80;94.30
27004;DHT22;14546;47.590;19.022;2024-03-08T07:45:36;6.80;94.40
27004;DHT22;14546;47.590;19.022;2024-03-08T07:48:02;6.80;94.40
27004;DHT22;14546;47.590;19.022;2024-03-08T07:50:28;6.90;94.50
27004;DHT22;14546;47.590;19.022;2024-03-08T07:52:54;6.90;94.40
27004;DHT22;14546;47.590;19.022;2024-03-08T07:55:20;6.90;94.30
27004;DHT22;14546;47.590;19.022;2024-03-08T07:57:49;6.90;94.40
27004;DHT22;14546;47.590;19.022;2024-03-08T08:00:15;6.80;94.20
27004;DHT22;14546;47.590;19.022;2024-03-08T08:02:46;6.80;94.30
27004;DHT22;14546;47.590;19.022;2024-03-08T08:05:12;6.80;94.30
27004;DHT22;14546;47.590;19.022;2024-03-08T08:07:39;6.80;94.30
27004;DHT22;14546;47.590;19.022;2024-03-08T08:10:07;6.90;94.40
27004;DHT22;14546;47.590;19.022;2024-03-08T08:12:32;6.90;94.40
27004;DHT22;14546;47.590;19.022;2024-03-08T08:15:00;6.90;94.40
27004;DHT22;14546;47.590;19.022;2024-03-08T08:17:26;6.90;94.40
27004;DHT22;14546;47.590;19.022;2024-03-08T08:19:51;7.00;94.50
27004;DHT22;14546;47.590;19.022;2024-03-08T08:22:17;7.00;94.40
27004;DHT22;14546;47.590;19.022;2024-03-08T08:24:43;7.00;94.30
27004;DHT22;14546;47.590;19.022;2024-03-08T08:27:09;7.00;94.30
27004;DHT22;14546;47.590;19.022;2024-03-08T08:29:37;7.00;94.20
27004;DHT22;14546;47.590;19.022;2024-03-08T08:32:03;7.00;94.20
27004;DHT22;14546;47.590;19.022;2024-03-08T08:34:29;7.10;94.30
27004;DHT22;14546;47.590;19.022;2024-03-08T08:36:55;7.10;94.20
27004;DHT22;14546;47.590;19.022;2024-03-08T08:39:21;7.10;94.00
27004;DHT22;14546;47.590;19.022;2024-03-08T08:41:48;7.00;94.30
27004;DHT22;14546;47.590;19.022;2024-03-08T08:44:14;7.00;94.10
27004;DHT22;14546;47.590;19.022;2024-03-08T08:46:40;7.00;94.20
27004;DHT22;14546;47.590;19.022;2024-03-08T08:49:06;7.00;94.20
27004;DHT22;14546;47.590;19.022;2024-03-08T08:51:36;7.10;94.30
27004;DHT22;14546;47.590;19.022;2024-03-08T08:54:02;7.10;94.40
27004;DHT22;14546;47.590;19.022;2024-03-08T08:56:28;7.10;94.40
27004;DHT22;14546;47.590;19.022;2024-03-08T08:58:54;7.20;94.30
27004;DHT22;14546;47.590;19.022;2024-03-08T09:01:20;7.20;94.10
27004;DHT22;14546;47.590;19.022;2024-03-08T09:03:46;7.20;94.10
27004;DHT22;14546;47.590;19.022;2024-03-08T09:06:13;7.10;94.10
27004;DHT22;14546;47.590;19.022;2024-03-08T09:08:39;7.20;94.20
27004;DHT22;14546;47.590;19.022;2024-03-08T09:11:06;7.10;94.10
27004;DHT22;14546;47.590;19.022;2024-03-08T09:13:33;7.10;94.30
27004;DHT22;14546;47.590;19.022;2024-03-08T09:16:05;7.10;94.40
27004;DHT22;14546;47.590;19.022;2024-03-08T09:18:33;7.10;94.30
27004;DHT22;14546;47.590;19.022;2024-03-08T09:20:59;7.10;94.40
27004;DHT22;14546;47.590;19.022;2024-03-08T09:23:25;7.10;94.50
27004;DHT22;14546;47.590;19.022;2024-03-08T09:25:56;7.10;94.60
27004;DHT22;14546;47.590;19.022;2024-03-08T09:28:23;7.10;94.70
27004;DHT22;14546;47.590;19.022;2024-03-08T09:30:51;7.20;94.80
27004;DHT22;14546;47.590;19.022;2024-03-08T09:33:17;7.20;94.80
27004;DHT22;14546;47.590;19.022;2024-03-08T09:35:46;7.20;94.80
27004;DHT22;14546;47.590;19.022;2024-03-08T09:38:12;7.20;94.80
27004;DHT22;14546;47.590;19.022;2024-03-08T09:40:42;7.20;94.90
27004;DHT22;14546;47.590;19.022;2024-03-08T09:43:11;7.20;94.90
27004;DHT22;14546;47.590;19.022;2024-03-08T09:45:37;7.20;94.90
27004;DHT22;14546;47.590;19.022;2024-03-08T09:48:11;7.20;95.00
27004;DHT22;14546;47.590;19.022;2024-03-08T09:50:40;7.20;95.00
27004;DHT22;14546;47.590;19.022;2024-03-08T09:53:08;7.20;95.00
27004;DHT22;14546;47.590;19.022;2024-03-08T09:55:37;7.20;95.10
27004;DHT22;14546;47.590;19.022;2024-03-08T09:58:06;7.30;95.20
27004;DHT22;14546;47.590;19.022;2024-03-08T10:00:50;7.30;95.20
27004;DHT22;14546;47.590;19.022;2024-03-08T10:03:16;7.30;95.20
27004;DHT22;14546;47.590;19.022;2024-03-08T10:05:43;7.30;95.30
27004;DHT22;14546;47.590;19.022;2024-03-08T10:08:10;7.30;95.30
27004;DHT22;14546;47.590;19.022;2024-03-08T10:10:39;7.40;95.30
27004;DHT22;14546;47.590;19.022;2024-03-08T10:13:07;7.40;95.30
27004;DHT22;14546;47.590;19.022;2024-03-08T10:15:33;7.50;95.30
27004;DHT22;14546;47.590;19.022;2024-03-08T10:17:59;7.60;95.40
27004;DHT22;14546;47.590;19.022;2024-03-08T10:20:26;7.60;95.40
27004;DHT22;14546;47.590;19.022;2024-03-08T10:23:03;7.70;95.40
27004;DHT22;14546;47.590;19.022;2024-03-08T10:25:35;7.80;95.50
27004;DHT22;14546;47.590;19.022;2024-03-08T10:28:05;7.90;95.40
27004;DHT22;14546;47.590;19.022;2024-03-08T10:30:32;7.90;95.10
27004;DHT22;14546;47.590;19.022;2024-03-08T10:32:58;8.00;95.00
27004;DHT22;14546;47.590;19.022;2024-03-08T10:35:25;8.00;94.90
27004;DHT22;14546;47.590;19.022;2024-03-08T10:37:52;8.10;94.80
27004;DHT22;14546;47.590;19.022;2024-03-08T10:40:25;8.10;94.70
27004;DHT22;14546;47.590;19.022;2024-03-08T10:42:58;8.10;94.70
27004;DHT22;14546;47.590;19.022;2024-03-08T10:45:38;8.10;94.60
27004;DHT22;14546;47.590;19.022;2024-03-08T10:50:42;8.30;94.70
27004;DHT22;14546;47.590;19.022;2024-03-08T10:53:11;8.40;94.50
27004;DHT22;14546;47.590;19.022;2024-03-08T10:55:40;8.40;94.30
27004;DHT22;14546;47.590;19.022;2024-03-08T10:58:08;8.50;94.30
27004;DHT22;14546;47.590;19.022;2024-03-08T11:00:35;8.50;94.10
27004;DHT22;14546;47.590;19.022;2024-03-08T11:03:01;8.60;93.80
27004;DHT22;14546;47.590;19.022;2024-03-08T11:05:36;8.60;93.70
27004;DHT22;14546;47.590;19.022;2024-03-08T11:08:15;8.60;93.80
27004;DHT22;14546;47.590;19.022;2024-03-08T11:10:54;8.60;93.60
27004;DHT22;14546;47.590;19.022;2024-03-08T11:13:42;8.70;93.60
27004;DHT22;14546;47.590;19.022;2024-03-08T11:16:11;8.70;93.80
27004;DHT22;14546;47.590;19.022;2024-03-08T11:18:37;8.80;93.90
27004;DHT22;14546;47.590;19.022;2024-03-08T11:21:09;8.90;93.90
27004;DHT22;14546;47.590;19.022;2024-03-08T11:23:38;8.90;93.70
27004;DHT22;14546;47.590;19.022;2024-03-08T11:26:20;9.00;93.90
27004;DHT22;14546;47.590;19.022;2024-03-08T11:28:46;9.00;93.60
27004;DHT22;14546;47.590;19.022;2024-03-08T11:33:40;9.00;93.20
27004;DHT22;14546;47.590;19.022;2024-03-08T11:36:19;9.00;93.20
27004;DHT22;14546;47.590;19.022;2024-03-08T11:38:48;9.00;93.30
27004;DHT22;14546;47.590;19.022;2024-03-08T11:41:20;9.00;93.10
27004;DHT22;14546;47.590;19.022;2024-03-08T11:43:46;9.00;93.10
27004;DHT22;14546;47.590;19.022;2024-03-08T11:46:13;8.90;93.00
27004;DHT22;14546;47.590;19.022;2024-03-08T11:48:43;8.90;92.80
27004;DHT22;14546;47.590;19.022;2024-03-08T11:51:13;8.80;92.60
27004;DHT22;14546;47.590;19.022;2024-03-08T11:53:40;8.70;92.50
27004;DHT22;14546;47.590;19.022;2024-03-08T11:56:08;8.50;92.50
27004;DHT22;14546;47.590;19.022;2024-03-08T11:58:34;8.50;92.70
27004;DHT22;14546;47.590;19.022;2024-03-08T12:01:03;8.40;92.70
27004;DHT22;14546;47.590;19.022;2024-03-08T12:03:30;8.30;92.70
27004;DHT22;14546;47.590;19.022;2024-03-08T12:06:02;8.30;92.90
27004;DHT22;14546;47.590;19.022;2024-03-08T12:08:30;8.30;93.00
27004;DHT22;14546;47.590;19.022;2024-03-08T12:10:56;8.30;93.10
27004;DHT22;14546;47.590;19.022;2024-03-08T12:13:33;8.30;93.10
27004;DHT22;14546;47.590;19.022;2024-03-08T12:16:03;8.20;93.30
27004;DHT22;14546;47.590;19.022;2024-03-08T12:18:37;8.30;93.40
27004;DHT22;14546;47.590;19.022;2024-03-08T12:21:06;8.30;93.30
27004;DHT22;14546;47.590;19.022;2024-03-08T12:23:36;8.30;93.40
27004;DHT22;14546;47.590;19.022;2024-03-08T12:26:27;8.30;93.50
27004;DHT22;14546;47.590;19.022;2024-03-08T12:28:53;8.30;93.40
27004;DHT22;14546;47.590;19.022;2024-03-08T12:31:19;8.40;93.60
27004;DHT22;14546;47.590;19.022;2024-03-08T12:33:51;8.50;93.70
27004;DHT22;14546;47.590;19.022;2024-03-08T12:36:18;8.50;93.70
27004;DHT22;14546;47.590;19.022;2024-03-08T12:38:44;8.60;93.60
27004;DHT22;14546;47.590;19.022;2024-03-08T12:41:22;8.60;93.60
27004;DHT22;14546;47.590;19.022;2024-03-08T12:43:48;8.60;93.60
27004;DHT22;14546;47.590;19.022;2024-03-08T12:46:17;8.70;93.60
27004;DHT22;14546;47.590;19.022;2024-03-08T12:48:43;8.70;93.60
27004;DHT22;14546;47.590;19.022;2024-03-08T12:51:13;8.80;93.50
27004;DHT22;14546;47.590;19.022;2024-03-08T12:53:38;8.70;93.40
27004;DHT22;14546;47.590;19.022;2024-03-08T12:56:06;8.70;93.20
27004;DHT22;14546;47.590;19.022;2024-03-08T12:58:34;8.70;93.10
27004;DHT22;14546;47.590;19.022;2024-03-08T13:01:02;8.70;93.10
27004;DHT22;14546;47.590;19.022;2024-03-08T13:03:30;8.70;93.10
27004;DHT22;14546;47.590;19.022;2024-03-08T13:05:57;8.70;93.20
27004;DHT22;14546;47.590;19.022;2024-03-08T13:08:23;8.70;93.30
27004;DHT22;14546;47.590;19.022;2024-03-08T13:10:50;8.70;93.60
27004;DHT22;14546;47.590;19.022;2024-03-08T13:13:17;8.70;93.20
27004;DHT22;14546;47.590;19.022;2024-03-08T13:15:42;8.70;93.20
27004;DHT22;14546;47.590;19.022;2024-03-08T13:18:08;8.70;93.10
27004;DHT22;14546;47.590;19.022;2024-03-08T13:20:34;8.60;93.10
27004;DHT22;14546;47.590;19.022;2024-03-08T13:23:03;8.60;93.20
27004;DHT22;14546;47.590;19.022;2024-03-08T13:25:31;8.70;93.20
27004;DHT22;14546;47.590;19.022;2024-03-08T13:27:56;8.70;93.10
27004;DHT22;14546;47.590;19.022;2024-03-08T13:30:24;8.60;93.00
27004;DHT22;14546;47.590;19.022;2024-03-08T13:32:52;8.60;93.00
27004;DHT22;14546;47.590;19.022;2024-03-08T13:35:18;8.60;93.00
27004;DHT22;14546;47.590;19.022;2024-03-08T13:37:50;8.60;93.00
27004;DHT22;14546;47.590;19.022;2024-03-08T13:40:17;8.60;93.00
27004;DHT22;14546;47.590;19.022;2024-03-08T13:42:46;8.60;93.00
27004;DHT22;14546;47.590;19.022;2024-03-08T13:45:12;8.60;93.00
27004;DHT22;14546;47.590;19.022;2024-03-08T13:47:41;8.60;93.00
27004;DHT22;14546;47.590;19.022;2024-03-08T13:50:10;8.60;93.00
27004;DHT22;14546;47.590;19.022;2024-03-08T13:52:48;8.60;93.00
27004;DHT22;14546;47.590;19.022;2024-03-08T13:55:17;8.60;93.00
27004;DHT22;14546;47.590;19.022;2024-03-08T13:57:43;8.60;93.00
27004;DHT22;14546;47.590;19.022;2024-03-08T14:00:11;8.60;93.10
27004;DHT22;14546;47.590;19.022;2024-03-08T14:02:38;8.60;93.10
27004;DHT22;14546;47.590;19.022;2024-03-08T14:05:09;8.60;93.30
27004;DHT22;14546;47.590;19.022;2024-03-08T14:07:36;8.60;93.30
27004;DHT22;14546;47.590;19.022;2024-03-08T14:10:02;8.50;93.20
27004;DHT22;14546;47.590;19.022;2024-03-08T14:12:28;8.50;93.30
27004;DHT22;14546;47.590;19.022;2024-03-08T14:14:55;8.50;93.40
27004;DHT22;14546;47.590;19.022;2024-03-08T14:17:26;8.50;93.50
27004;DHT22;14546;47.590;19.022;2024-03-08T14:19:53;8.50;93.40
27004;DHT22;14546;47.590;19.022;2024-03-08T14:22:20;8.60;93.50
27004;DHT22;14546;47.590;19.022;2024-03-08T14:24:46;8.60;93.40
27004;DHT22;14546;47.590;19.022;2024-03-08T14:27:12;8.60;93.40
27004;DHT22;14546;47.590;19.022;2024-03-08T14:29:40;8.60;93.30
27004;DHT22;14546;47.590;19.022;2024-03-08T14:32:06;8.60;93.30
27004;DHT22;14546;47.590;19.022;2024-03-08T14:34:34;8.60;93.20
27004;DHT22;14546;47.590;19.022;2024-03-08T14:37:01;8.60;93.20
27004;DHT22;14546;47.590;19.022;2024-03-08T14:39:31;8.60;93.10
27004;DHT22;14546;47.590;19.022;2024-03-08T14:41:59;8.60;93.00
27004;DHT22;14546;47.590;19.022;2024-03-08T14:44:25;8.50;93.00
27004;DHT22;14546;47.590;19.022;2024-03-08T14:46:52;8.50;93.00
27004;DHT22;14546;47.590;19.022;2024-03-08T14:49:18;8.50;93.00
27004;DHT22;14546;47.590;19.022;2024-03-08T14:51:44;8.50;93.00
27004;DHT22;14546;47.590;19.022;2024-03-08T14:54:10;8.50;92.90
27004;DHT22;14546;47.590;19.022;2024-03-08T14:56:36;8.50;92.90
27004;DHT22;14546;47.590;19.022;2024-03-08T14:59:02;8.50;92.90
27004;DHT22;14546;47.590;19.022;2024-03-08T15:01:30;8.40;92.90
27004;DHT22;14546;47.590;19.022;2024-03-08T15:03:58;8.40;92.90
27004;DHT22;14546;47.590;19.022;2024-03-08T15:06:29;8.50;93.50
27004;DHT22;14546;47.590;19.022;2024-03-08T15:08:56;9.20;95.30
27004;DHT22;14546;47.590;19.022;2024-03-08T15:11:23;9.70;94.40
27004;DHT22;14546;47.590;19.022;2024-03-08T15:13:51;9.70;93.00
27004;DHT22;14546;47.590;19.022;2024-03-08T15:16:19;9.60;92.40
27004;DHT22;14546;47.590;19.022;2024-03-08T15:18:46;9.40;92.30
27004;DHT22;14546;47.590;19.022;2024-03-08T15:21:13;9.30;92.30
27004;DHT22;14546;47.590;19.022;2024-03-08T15:23:44;9.10;92.30
27004;DHT22;14546;47.590;19.022;2024-03-08T15:26:15;9.00;92.30
27004;DHT22;14546;47.590;19.022;2024-03-08T15:28:42;8.90;92.30
27004;DHT22;14546;47.590;19.022;2024-03-08T15:31:10;8.80;92.40
27004;DHT22;14546;47.590;19.022;2024-03-08T15:33:38;8.70;92.40
27004;DHT22;14546;47.590;19.022;2024-03-08T15:36:11;8.70;92.40